Carmel Valley, CA

4:21 PM PDT on March 23, 2017 (GMT -0700)
Turtle Hill in Robles del Rio | | Change Station

Elev 354 ft 36.47 °N, 121.73 °W | Updated 28 seconds ago

Clear
Clear
57.5 °F
Feels Like 57.5 °F
N
0.0
Wind Variable Wind from ESE

Today
High -- | Low -- °F
--% Chance of Precip.
Yesterday
High -- | Low -- °F
Precip. -- in
Pressure 30.26 in
Visibility 10.0 miles
Clouds Clear
Dew Point 47 °F
Humidity 69%
Rainfall 0.00 in
Snow Depth Not available.
7:05 AM 7:21 PM
Waning Crescent, 20% visible
METAR KMRY 232254Z 29009KT 10SM CLR 14/07 A3022 RMK AO2 SLP247 T01390067
Pressure 30.26 in
Visibility 10.0 miles
Clouds Clear
Dew Point 47 °F
Humidity 69%
Rainfall 0.00 in
Snow Depth Not available.
7:05 AM 7:21 PM
Waning Crescent, 20% visible
METAR KMRY 232254Z 29009KT 10SM CLR 14/07 A3022 RMK AO2 SLP247 T01390067

Get Severe Weather Alerts

Thanks for signing up!

Be on the lookout for a verification email in your inbox.

You'll start receiving the daily forecast at 8 AM.

×

10-Day Weather Forecast

Almanac

Astronomy

Mar. 23, 2017 Rise Set
Actual Time
Civil Twilight
Nautical Twilight
Astronomical Twilight
Moon
Length of Visible Light
Length of Day
Tomorrow will be .
, % of the Moon is Illuminated

Today's Extremes

State Highs State Lows

Community

WunderPhotos

Upload Photos

1,962,540 photos uploaded!

WunderBlog® & News

Nearby

Air Quality

  Air Quality AQ Index Pollutant
Not available.

Snow Depth

Station Depth Elevation

Earthquake Activity

City Distance Mag. Time & Date
Minimum magnitude displayed is 2.5.

Earthquake Activity

City Distance Mag. Time & Date
Minimum magnitude displayed is 2.5.

Coastal Water Temperatures

Place Temperature

Stations

Nearby Weather Stations

Station Location Temp. Windchill Dew Point Humidity Wind Precip. Elev Updated Type
                   

Watches & Warnings

There are currently no watches in effect.